sensor_id;sensor_type;location;lat;lon;timestamp;temperature;humidity
18581;DHT22;9420;50.876;7.012;2022-07-06T00:01:34;16.80;99.90
18581;DHT22;9420;50.876;7.012;2022-07-06T00:04:01;16.70;99.90
18581;DHT22;9420;50.876;7.012;2022-07-06T00:06:29;16.70;99.90
18581;DHT22;9420;50.876;7.012;2022-07-06T00:08:56;16.60;99.90
18581;DHT22;9420;50.876;7.012;2022-07-06T00:11:23;16.50;99.90
18581;DHT22;9420;50.876;7.012;2022-07-06T00:13:53;16.40;99.90
18581;DHT22;9420;50.876;7.012;2022-07-06T00:16:22;16.30;99.90
18581;DHT22;9420;50.876;7.012;2022-07-06T00:18:50;16.20;99.90
18581;DHT22;9420;50.876;7.012;2022-07-06T00:21:18;16.10;99.90
18581;DHT22;9420;50.876;7.012;2022-07-06T00:23:45;16.10;99.90
18581;DHT22;9420;50.876;7.012;2022-07-06T00:26:12;16.10;99.90
18581;DHT22;9420;50.876;7.012;2022-07-06T00:28:39;16.00;99.90
18581;DHT22;9420;50.876;7.012;2022-07-06T00:31:08;15.90;99.90
18581;DHT22;9420;50.876;7.012;2022-07-06T00:33:36;15.90;99.90
18581;DHT22;9420;50.876;7.012;2022-07-06T00:36:04;15.90;99.90
18581;DHT22;9420;50.876;7.012;2022-07-06T00:38:31;15.90;99.90
18581;DHT22;9420;50.876;7.012;2022-07-06T00:40:58;15.80;99.90
18581;DHT22;9420;50.876;7.012;2022-07-06T00:43:25;15.70;99.90
18581;DHT22;9420;50.876;7.012;2022-07-06T00:45:52;15.60;99.90
18581;DHT22;9420;50.876;7.012;2022-07-06T00:48:20;15.60;99.90
18581;DHT22;9420;50.876;7.012;2022-07-06T00:50:48;15.60;99.90
18581;DHT22;9420;50.876;7.012;2022-07-06T00:53:15;15.60;99.90
18581;DHT22;9420;50.876;7.012;2022-07-06T00:55:42;15.60;99.90
18581;DHT22;9420;50.876;7.012;2022-07-06T00:58:09;15.50;99.90
18581;DHT22;9420;50.876;7.012;2022-07-06T01:00:37;15.50;99.90
18581;DHT22;9420;50.876;7.012;2022-07-06T01:03:04;15.50;99.90
18581;DHT22;9420;50.876;7.012;2022-07-06T01:05:32;15.40;99.90
18581;DHT22;9420;50.876;7.012;2022-07-06T01:07:59;15.40;99.90
18581;DHT22;9420;50.876;7.012;2022-07-06T01:10:27;15.30;99.90
18581;DHT22;9420;50.876;7.012;2022-07-06T01:12:55;15.30;99.90
18581;DHT22;9420;50.876;7.012;2022-07-06T01:15:24;15.20;99.90
18581;DHT22;9420;50.876;7.012;2022-07-06T01:17:52;15.30;99.90
18581;DHT22;9420;50.876;7.012;2022-07-06T01:20:22;15.20;99.90
18581;DHT22;9420;50.876;7.012;2022-07-06T01:22:52;15.20;99.90
18581;DHT22;9420;50.876;7.012;2022-07-06T01:25:21;15.10;99.90
18581;DHT22;9420;50.876;7.012;2022-07-06T01:27:48;15.10;99.90
18581;DHT22;9420;50.876;7.012;2022-07-06T01:30:18;15.00;99.90
18581;DHT22;9420;50.876;7.012;2022-07-06T01:32:46;14.80;99.90
18581;DHT22;9420;50.876;7.012;2022-07-06T01:35:15;14.80;99.90
18581;DHT22;9420;50.876;7.012;2022-07-06T01:37:43;14.70;99.90
18581;DHT22;9420;50.876;7.012;2022-07-06T01:40:11;14.60;99.90
18581;DHT22;9420;50.876;7.012;2022-07-06T01:42:39;14.60;99.90
18581;DHT22;9420;50.876;7.012;2022-07-06T01:45:07;14.50;99.90
18581;DHT22;9420;50.876;7.012;2022-07-06T01:47:35;14.50;99.90
18581;DHT22;9420;50.876;7.012;2022-07-06T01:50:05;14.40;99.90
18581;DHT22;9420;50.876;7.012;2022-07-06T01:52:34;14.30;99.90
18581;DHT22;9420;50.876;7.012;2022-07-06T01:55:03;14.30;99.90
18581;DHT22;9420;50.876;7.012;2022-07-06T01:57:31;14.30;99.90
18581;DHT22;9420;50.876;7.012;2022-07-06T01:59:58;14.20;99.90
18581;DHT22;9420;50.876;7.012;2022-07-06T02:02:25;14.10;99.90
18581;DHT22;9420;50.876;7.012;2022-07-06T02:04:52;14.20;99.90
18581;DHT22;9420;50.876;7.012;2022-07-06T02:07:19;14.10;99.90
18581;DHT22;9420;50.876;7.012;2022-07-06T02:09:46;14.00;99.90
18581;DHT22;9420;50.876;7.012;2022-07-06T02:12:14;14.10;99.90
18581;DHT22;9420;50.876;7.012;2022-07-06T02:14:41;14.10;99.90
18581;DHT22;9420;50.876;7.012;2022-07-06T02:17:08;14.00;99.90
18581;DHT22;9420;50.876;7.012;2022-07-06T02:19:35;13.90;99.90
18581;DHT22;9420;50.876;7.012;2022-07-06T02:22:03;13.90;99.90
18581;DHT22;9420;50.876;7.012;2022-07-06T02:24:30;13.80;99.90
18581;DHT22;9420;50.876;7.012;2022-07-06T02:26:57;13.80;99.90
18581;DHT22;9420;50.876;7.012;2022-07-06T02:29:25;13.90;99.90
18581;DHT22;9420;50.876;7.012;2022-07-06T02:31:53;13.90;99.90
18581;DHT22;9420;50.876;7.012;2022-07-06T02:34:20;13.90;99.90
18581;DHT22;9420;50.876;7.012;2022-07-06T02:36:47;13.70;99.90
18581;DHT22;9420;50.876;7.012;2022-07-06T02:39:14;13.70;99.90
18581;DHT22;9420;50.876;7.012;2022-07-06T02:41:41;13.80;99.90
18581;DHT22;9420;50.876;7.012;2022-07-06T02:44:08;13.70;99.90
18581;DHT22;9420;50.876;7.012;2022-07-06T02:46:37;13.60;99.90
18581;DHT22;9420;50.876;7.012;2022-07-06T02:49:04;13.60;99.90
18581;DHT22;9420;50.876;7.012;2022-07-06T02:51:31;13.60;99.90
18581;DHT22;9420;50.876;7.012;2022-07-06T02:53:58;13.60;99.90
18581;DHT22;9420;50.876;7.012;2022-07-06T02:56:25;13.60;99.90
18581;DHT22;9420;50.876;7.012;2022-07-06T02:58:53;13.50;99.90
18581;DHT22;9420;50.876;7.012;2022-07-06T03:01:20;13.60;99.90
18581;DHT22;9420;50.876;7.012;2022-07-06T03:03:49;13.50;99.90
18581;DHT22;9420;50.876;7.012;2022-07-06T03:06:16;13.40;99.90
18581;DHT22;9420;50.876;7.012;2022-07-06T03:08:43;13.40;99.90
18581;DHT22;9420;50.876;7.012;2022-07-06T03:11:10;13.40;99.90
18581;DHT22;9420;50.876;7.012;2022-07-06T03:13:38;13.40;99.90
18581;DHT22;9420;50.876;7.012;2022-07-06T03:16:05;13.30;99.90
18581;DHT22;9420;50.876;7.012;2022-07-06T03:18:32;13.30;99.90
18581;DHT22;9420;50.876;7.012;2022-07-06T03:21:00;13.20;99.90
18581;DHT22;9420;50.876;7.012;2022-07-06T03:23:29;13.10;99.90
18581;DHT22;9420;50.876;7.012;2022-07-06T03:25:56;13.30;99.90
18581;DHT22;9420;50.876;7.012;2022-07-06T03:28:23;13.20;99.90
18581;DHT22;9420;50.876;7.012;2022-07-06T03:30:50;13.20;99.90
18581;DHT22;9420;50.876;7.012;2022-07-06T03:33:17;13.20;99.90
18581;DHT22;9420;50.876;7.012;2022-07-06T03:35:44;13.20;99.90
18581;DHT22;9420;50.876;7.012;2022-07-06T03:38:13;13.20;99.90
18581;DHT22;9420;50.876;7.012;2022-07-06T03:40:40;13.20;99.90
18581;DHT22;9420;50.876;7.012;2022-07-06T03:43:07;13.10;99.90
18581;DHT22;9420;50.876;7.012;2022-07-06T03:45:34;13.20;99.90
18581;DHT22;9420;50.876;7.012;2022-07-06T03:48:01;13.10;99.90
18581;DHT22;9420;50.876;7.012;2022-07-06T03:50:28;13.10;99.90
18581;DHT22;9420;50.876;7.012;2022-07-06T03:52:55;13.00;99.90
18581;DHT22;9420;50.876;7.012;2022-07-06T03:55:23;13.00;99.90
18581;DHT22;9420;50.876;7.012;2022-07-06T03:57:50;13.10;99.90
18581;DHT22;9420;50.876;7.012;2022-07-06T04:00:17;13.10;99.90
18581;DHT22;9420;50.876;7.012;2022-07-06T04:02:45;13.00;99.90
18581;DHT22;9420;50.876;7.012;2022-07-06T04:05:12;13.00;99.90
18581;DHT22;9420;50.876;7.012;2022-07-06T04:07:39;12.90;99.90
18581;DHT22;9420;50.876;7.012;2022-07-06T04:10:07;13.00;99.90
18581;DHT22;9420;50.876;7.012;2022-07-06T04:12:41;13.00;99.90
18581;DHT22;9420;50.876;7.012;2022-07-06T04:15:11;13.00;99.90
18581;DHT22;9420;50.876;7.012;2022-07-06T04:17:38;13.00;99.90
18581;DHT22;9420;50.876;7.012;2022-07-06T04:20:22;13.00;99.90
18581;DHT22;9420;50.876;7.012;2022-07-06T04:22:52;13.10;99.90
18581;DHT22;9420;50.876;7.012;2022-07-06T04:25:19;13.10;99.90
18581;DHT22;9420;50.876;7.012;2022-07-06T04:27:47;13.10;99.90
18581;DHT22;9420;50.876;7.012;2022-07-06T04:30:14;13.00;99.90
18581;DHT22;9420;50.876;7.012;2022-07-06T04:32:41;13.00;99.90
18581;DHT22;9420;50.876;7.012;2022-07-06T04:35:09;13.10;99.90
18581;DHT22;9420;50.876;7.012;2022-07-06T04:37:36;13.00;99.90
18581;DHT22;9420;50.876;7.012;2022-07-06T04:40:04;12.90;99.90
18581;DHT22;9420;50.876;7.012;2022-07-06T04:42:32;12.90;99.90
18581;DHT22;9420;50.876;7.012;2022-07-06T04:45:01;13.00;99.90
18581;DHT22;9420;50.876;7.012;2022-07-06T04:47:28;13.10;99.90
18581;DHT22;9420;50.876;7.012;2022-07-06T04:49:55;13.10;99.90
18581;DHT22;9420;50.876;7.012;2022-07-06T04:52:22;13.10;99.90
18581;DHT22;9420;50.876;7.012;2022-07-06T04:54:49;13.10;99.90
18581;DHT22;9420;50.876;7.012;2022-07-06T04:57:16;13.10;99.90
18581;DHT22;9420;50.876;7.012;2022-07-06T04:59:43;13.20;99.90
18581;DHT22;9420;50.876;7.012;2022-07-06T05:02:12;13.20;99.90
18581;DHT22;9420;50.876;7.012;2022-07-06T05:04:39;13.20;99.90
18581;DHT22;9420;50.876;7.012;2022-07-06T05:07:06;13.20;99.90
18581;DHT22;9420;50.876;7.012;2022-07-06T05:09:33;13.30;99.90
18581;DHT22;9420;50.876;7.012;2022-07-06T05:12:00;13.40;99.90
18581;DHT22;9420;50.876;7.012;2022-07-06T05:14:27;13.50;99.90
18581;DHT22;9420;50.876;7.012;2022-07-06T05:16:54;13.50;99.90
18581;DHT22;9420;50.876;7.012;2022-07-06T05:19:23;13.60;99.90
18581;DHT22;9420;50.876;7.012;2022-07-06T05:21:50;13.60;99.90
18581;DHT22;9420;50.876;7.012;2022-07-06T05:24:17;13.70;99.90
18581;DHT22;9420;50.876;7.012;2022-07-06T05:26:45;13.80;99.90
18581;DHT22;9420;50.876;7.012;2022-07-06T05:29:12;13.90;99.90
18581;DHT22;9420;50.876;7.012;2022-07-06T05:31:39;14.00;99.90
18581;DHT22;9420;50.876;7.012;2022-07-06T05:34:06;14.10;99.90
18581;DHT22;9420;50.876;7.012;2022-07-06T05:36:34;14.20;99.90
18581;DHT22;9420;50.876;7.012;2022-07-06T05:39:02;14.30;99.90
18581;DHT22;9420;50.876;7.012;2022-07-06T05:41:29;14.30;99.90
18581;DHT22;9420;50.876;7.012;2022-07-06T05:43:56;14.20;99.90
18581;DHT22;9420;50.876;7.012;2022-07-06T05:46:23;14.30;99.90
18581;DHT22;9420;50.876;7.012;2022-07-06T05:48:50;14.30;99.90
18581;DHT22;9420;50.876;7.012;2022-07-06T05:51:36;14.30;99.90
18581;DHT22;9420;50.876;7.012;2022-07-06T05:54:03;14.40;99.90
18581;DHT22;9420;50.876;7.012;2022-07-06T05:56:30;14.50;99.90
18581;DHT22;9420;50.876;7.012;2022-07-06T05:58:57;14.70;99.90
18581;DHT22;9420;50.876;7.012;2022-07-06T06:01:24;14.80;99.90
18581;DHT22;9420;50.876;7.012;2022-07-06T06:03:52;14.80;99.90
18581;DHT22;9420;50.876;7.012;2022-07-06T06:06:19;14.90;99.90
18581;DHT22;9420;50.876;7.012;2022-07-06T06:08:47;14.90;99.90
18581;DHT22;9420;50.876;7.012;2022-07-06T06:11:14;15.00;99.90
18581;DHT22;9420;50.876;7.012;2022-07-06T06:13:41;15.20;99.90
18581;DHT22;9420;50.876;7.012;2022-07-06T06:16:08;15.20;99.90
18581;DHT22;9420;50.876;7.012;2022-07-06T06:18:36;15.20;99.90
18581;DHT22;9420;50.876;7.012;2022-07-06T06:21:03;15.20;99.90
18581;DHT22;9420;50.876;7.012;2022-07-06T06:23:30;15.30;99.90
18581;DHT22;9420;50.876;7.012;2022-07-06T06:25:59;15.40;99.90
18581;DHT22;9420;50.876;7.012;2022-07-06T06:28:26;15.70;99.90
18581;DHT22;9420;50.876;7.012;2022-07-06T06:30:53;15.90;99.90
18581;DHT22;9420;50.876;7.012;2022-07-06T06:33:20;15.90;99.90
18581;DHT22;9420;50.876;7.012;2022-07-06T06:35:49;15.80;99.90
18581;DHT22;9420;50.876;7.012;2022-07-06T06:38:18;15.80;99.90
18581;DHT22;9420;50.876;7.012;2022-07-06T06:40:46;15.80;99.90
18581;DHT22;9420;50.876;7.012;2022-07-06T06:43:14;15.90;99.90
18581;DHT22;9420;50.876;7.012;2022-07-06T06:45:41;16.20;99.90
18581;DHT22;9420;50.876;7.012;2022-07-06T06:48:10;16.30;99.90
18581;DHT22;9420;50.876;7.012;2022-07-06T06:50:37;16.60;99.90
18581;DHT22;9420;50.876;7.012;2022-07-06T06:53:04;16.50;99.90
18581;DHT22;9420;50.876;7.012;2022-07-06T06:55:31;16.90;99.90
18581;DHT22;9420;50.876;7.012;2022-07-06T06:57:58;17.30;99.90
18581;DHT22;9420;50.876;7.012;2022-07-06T07:00:26;17.20;99.90
18581;DHT22;9420;50.876;7.012;2022-07-06T07:02:53;17.20;99.90
18581;DHT22;9420;50.876;7.012;2022-07-06T07:05:20;17.00;99.90
18581;DHT22;9420;50.876;7.012;2022-07-06T07:07:47;17.10;99.90
18581;DHT22;9420;50.876;7.012;2022-07-06T07:10:15;17.00;99.90
18581;DHT22;9420;50.876;7.012;2022-07-06T07:12:46;16.90;99.90
18581;DHT22;9420;50.876;7.012;2022-07-06T07:15:14;16.90;99.90
18581;DHT22;9420;50.876;7.012;2022-07-06T07:17:44;16.90;99.90
18581;DHT22;9420;50.876;7.012;2022-07-06T07:20:12;17.20;99.90
18581;DHT22;9420;50.876;7.012;2022-07-06T07:22:39;17.80;99.90
18581;DHT22;9420;50.876;7.012;2022-07-06T07:25:07;17.90;99.90
18581;DHT22;9420;50.876;7.012;2022-07-06T07:27:34;17.80;99.90
18581;DHT22;9420;50.876;7.012;2022-07-06T07:30:02;17.40;99.90
18581;DHT22;9420;50.876;7.012;2022-07-06T07:32:30;17.30;99.90
18581;DHT22;9420;50.876;7.012;2022-07-06T07:34:59;17.20;99.90
18581;DHT22;9420;50.876;7.012;2022-07-06T07:37:26;17.00;99.90
18581;DHT22;9420;50.876;7.012;2022-07-06T07:39:53;17.00;99.90
18581;DHT22;9420;50.876;7.012;2022-07-06T07:42:20;17.00;99.90
18581;DHT22;9420;50.876;7.012;2022-07-06T07:44:47;17.10;99.90
18581;DHT22;9420;50.876;7.012;2022-07-06T07:47:14;17.10;99.90
18581;DHT22;9420;50.876;7.012;2022-07-06T07:49:41;17.00;99.90
18581;DHT22;9420;50.876;7.012;2022-07-06T07:52:10;17.10;99.90
18581;DHT22;9420;50.876;7.012;2022-07-06T07:54:37;17.10;99.90
18581;DHT22;9420;50.876;7.012;2022-07-06T07:57:04;16.90;99.90
18581;DHT22;9420;50.876;7.012;2022-07-06T07:59:32;16.90;99.90
18581;DHT22;9420;50.876;7.012;2022-07-06T08:01:59;17.00;99.90
18581;DHT22;9420;50.876;7.012;2022-07-06T08:04:26;17.10;99.90
18581;DHT22;9420;50.876;7.012;2022-07-06T08:06:53;17.30;99.90
18581;DHT22;9420;50.876;7.012;2022-07-06T08:09:21;17.30;99.90
18581;DHT22;9420;50.876;7.012;2022-07-06T08:11:48;17.50;99.90
18581;DHT22;9420;50.876;7.012;2022-07-06T08:14:15;17.50;99.90
18581;DHT22;9420;50.876;7.012;2022-07-06T08:16:43;17.30;99.90
18581;DHT22;9420;50.876;7.012;2022-07-06T08:19:10;17.20;99.90
18581;DHT22;9420;50.876;7.012;2022-07-06T08:21:40;17.00;99.90
18581;DHT22;9420;50.876;7.012;2022-07-06T08:24:08;17.00;99.90
18581;DHT22;9420;50.876;7.012;2022-07-06T08:26:36;17.00;99.90
18581;DHT22;9420;50.876;7.012;2022-07-06T08:29:04;17.00;99.90
18581;DHT22;9420;50.876;7.012;2022-07-06T08:31:32;17.20;99.90
18581;DHT22;9420;50.876;7.012;2022-07-06T08:34:00;17.40;99.90
18581;DHT22;9420;50.876;7.012;2022-07-06T08:36:27;17.60;99.90
18581;DHT22;9420;50.876;7.012;2022-07-06T08:38:55;17.40;99.90
18581;DHT22;9420;50.876;7.012;2022-07-06T08:41:25;17.30;99.90
18581;DHT22;9420;50.876;7.012;2022-07-06T08:43:56;17.30;99.90
18581;DHT22;9420;50.876;7.012;2022-07-06T08:46:27;17.30;99.90
18581;DHT22;9420;50.876;7.012;2022-07-06T08:48:56;17.30;99.90
18581;DHT22;9420;50.876;7.012;2022-07-06T08:51:25;17.50;99.90
18581;DHT22;9420;50.876;7.012;2022-07-06T08:53:53;17.40;99.90
18581;DHT22;9420;50.876;7.012;2022-07-06T08:56:23;17.40;99.90
18581;DHT22;9420;50.876;7.012;2022-07-06T08:58:50;17.40;99.90
18581;DHT22;9420;50.876;7.012;2022-07-06T09:01:21;17.40;99.90
18581;DHT22;9420;50.876;7.012;2022-07-06T09:03:49;17.50;99.90
18581;DHT22;9420;50.876;7.012;2022-07-06T09:06:22;17.50;99.90
18581;DHT22;9420;50.876;7.012;2022-07-06T09:08:53;17.50;99.90
18581;DHT22;9420;50.876;7.012;2022-07-06T09:11:22;17.60;99.90
18581;DHT22;9420;50.876;7.012;2022-07-06T09:13:51;17.90;99.90
18581;DHT22;9420;50.876;7.012;2022-07-06T09:16:25;17.70;99.90
18581;DHT22;9420;50.876;7.012;2022-07-06T09:18:54;17.70;99.90
18581;DHT22;9420;50.876;7.012;2022-07-06T09:21:25;17.50;99.90
18581;DHT22;9420;50.876;7.012;2022-07-06T09:23:56;17.60;99.90
18581;DHT22;9420;50.876;7.012;2022-07-06T09:26:25;17.60;99.90
18581;DHT22;9420;50.876;7.012;2022-07-06T09:28:55;17.80;99.90
18581;DHT22;9420;50.876;7.012;2022-07-06T09:31:24;18.00;99.90
18581;DHT22;9420;50.876;7.012;2022-07-06T09:33:56;18.10;99.90
18581;DHT22;9420;50.876;7.012;2022-07-06T09:36:45;18.10;99.90
18581;DHT22;9420;50.876;7.012;2022-07-06T09:39:18;17.90;99.90
18581;DHT22;9420;50.876;7.012;2022-07-06T09:41:47;18.10;99.90
18581;DHT22;9420;50.876;7.012;2022-07-06T09:44:20;18.20;99.90
18581;DHT22;9420;50.876;7.012;2022-07-06T09:46:50;18.20;99.90
18581;DHT22;9420;50.876;7.012;2022-07-06T09:49:18;18.10;99.90
18581;DHT22;9420;50.876;7.012;2022-07-06T09:51:47;18.00;99.90
18581;DHT22;9420;50.876;7.012;2022-07-06T09:54:15;18.20;99.90
18581;DHT22;9420;50.876;7.012;2022-07-06T09:56:44;18.20;99.90
18581;DHT22;9420;50.876;7.012;2022-07-06T09:59:18;18.30;99.90
18581;DHT22;9420;50.876;7.012;2022-07-06T10:01:47;18.30;99.90
18581;DHT22;9420;50.876;7.012;2022-07-06T10:04:17;18.50;99.90
18581;DHT22;9420;50.876;7.012;2022-07-06T10:06:46;18.50;99.90
18581;DHT22;9420;50.876;7.012;2022-07-06T10:09:14;18.60;99.90
18581;DHT22;9420;50.876;7.012;2022-07-06T10:11:44;18.50;99.90
18581;DHT22;9420;50.876;7.012;2022-07-06T10:14:18;19.00;99.90
18581;DHT22;9420;50.876;7.012;2022-07-06T10:16:48;19.20;99.90
18581;DHT22;9420;50.876;7.012;2022-07-06T10:19:19;19.30;99.90
18581;DHT22;9420;50.876;7.012;2022-07-06T10:21:47;19.50;99.90
18581;DHT22;9420;50.876;7.012;2022-07-06T10:24:15;19.60;99.90
18581;DHT22;9420;50.876;7.012;2022-07-06T10:26:45;20.20;99.90
18581;DHT22;9420;50.876;7.012;2022-07-06T10:29:13;20.60;99.90
18581;DHT22;9420;50.876;7.012;2022-07-06T10:31:43;20.80;99.90
18581;DHT22;9420;50.876;7.012;2022-07-06T10:34:15;20.80;99.90
18581;DHT22;9420;50.876;7.012;2022-07-06T10:36:49;21.30;99.90
18581;DHT22;9420;50.876;7.012;2022-07-06T10:39:32;21.10;99.90
18581;DHT22;9420;50.876;7.012;2022-07-06T10:42:42;20.80;99.90
18581;DHT22;9420;50.876;7.012;2022-07-06T10:45:12;20.80;99.90
18581;DHT22;9420;50.876;7.012;2022-07-06T10:47:41;21.00;99.90
18581;DHT22;9420;50.876;7.012;2022-07-06T10:50:10;21.00;99.90
18581;DHT22;9420;50.876;7.012;2022-07-06T10:52:51;21.10;99.90
18581;DHT22;9420;50.876;7.012;2022-07-06T10:55:34;21.90;99.90
18581;DHT22;9420;50.876;7.012;2022-07-06T10:58:03;22.30;99.90
18581;DHT22;9420;50.876;7.012;2022-07-06T11:00:48;21.70;99.90
18581;DHT22;9420;50.876;7.012;2022-07-06T11:03:37;21.90;99.90
18581;DHT22;9420;50.876;7.012;2022-07-06T11:06:10;21.80;99.90
18581;DHT22;9420;50.876;7.012;2022-07-06T11:08:47;21.80;99.90
18581;DHT22;9420;50.876;7.012;2022-07-06T11:11:17;22.10;99.90
18581;DHT22;9420;50.876;7.012;2022-07-06T11:13:51;22.40;99.90
18581;DHT22;9420;50.876;7.012;2022-07-06T11:16:24;23.10;99.90
18581;DHT22;9420;50.876;7.012;2022-07-06T11:19:04;23.10;99.90
18581;DHT22;9420;50.876;7.012;2022-07-06T11:21:40;21.70;99.90
18581;DHT22;9420;50.876;7.012;2022-07-06T11:24:12;20.80;99.90
18581;DHT22;9420;50.876;7.012;2022-07-06T11:26:43;20.90;99.90
18581;DHT22;9420;50.876;7.012;2022-07-06T11:29:12;21.40;99.90
18581;DHT22;9420;50.876;7.012;2022-07-06T11:31:41;20.90;99.90
18581;DHT22;9420;50.876;7.012;2022-07-06T11:34:11;20.50;99.90
18581;DHT22;9420;50.876;7.012;2022-07-06T11:36:42;20.90;99.90
18581;DHT22;9420;50.876;7.012;2022-07-06T11:39:09;21.40;99.90
18581;DHT22;9420;50.876;7.012;2022-07-06T11:41:37;22.30;99.90
18581;DHT22;9420;50.876;7.012;2022-07-06T11:44:04;23.20;99.90
18581;DHT22;9420;50.876;7.012;2022-07-06T11:46:32;23.70;99.90
18581;DHT22;9420;50.876;7.012;2022-07-06T11:49:02;22.20;99.90
18581;DHT22;9420;50.876;7.012;2022-07-06T11:51:32;21.30;99.90
18581;DHT22;9420;50.876;7.012;2022-07-06T11:54:08;21.90;99.90
18581;DHT22;9420;50.876;7.012;2022-07-06T11:56:37;21.60;99.90
18581;DHT22;9420;50.876;7.012;2022-07-06T11:59:06;21.70;99.90
18581;DHT22;9420;50.876;7.012;2022-07-06T12:01:36;21.80;99.90
18581;DHT22;9420;50.876;7.012;2022-07-06T12:04:07;21.90;99.90
18581;DHT22;9420;50.876;7.012;2022-07-06T12:06:34;22.80;99.90
18581;DHT22;9420;50.876;7.012;2022-07-06T12:09:03;22.80;99.90
18581;DHT22;9420;50.876;7.012;2022-07-06T12:11:33;22.50;99.90
18581;DHT22;9420;50.876;7.012;2022-07-06T12:14:02;21.80;99.90
18581;DHT22;9420;50.876;7.012;2022-07-06T12:16:39;21.50;99.90
18581;DHT22;9420;50.876;7.012;2022-07-06T12:19:06;21.40;99.90
18581;DHT22;9420;50.876;7.012;2022-07-06T12:21:42;21.60;99.90
18581;DHT22;9420;50.876;7.012;2022-07-06T12:24:17;21.60;99.90
18581;DHT22;9420;50.876;7.012;2022-07-06T12:26:46;21.40;99.90
18581;DHT22;9420;50.876;7.012;2022-07-06T12:29:14;21.50;99.90
18581;DHT22;9420;50.876;7.012;2022-07-06T12:31:44;21.90;99.90
18581;DHT22;9420;50.876;7.012;2022-07-06T12:34:17;22.90;99.90
18581;DHT22;9420;50.876;7.012;2022-07-06T12:36:47;22.80;99.90
18581;DHT22;9420;50.876;7.012;2022-07-06T12:39:18;22.40;99.90
18581;DHT22;9420;50.876;7.012;2022-07-06T12:41:48;22.50;99.90
18581;DHT22;9420;50.876;7.012;2022-07-06T12:44:17;21.70;99.90
18581;DHT22;9420;50.876;7.012;2022-07-06T12:46:46;21.50;99.90
18581;DHT22;9420;50.876;7.012;2022-07-06T12:49:16;21.30;99.90
18581;DHT22;9420;50.876;7.012;2022-07-06T12:51:57;21.70;99.90
18581;DHT22;9420;50.876;7.012;2022-07-06T12:54:29;21.90;99.90
18581;DHT22;9420;50.876;7.012;2022-07-06T12:57:10;22.30;99.90
18581;DHT22;9420;50.876;7.012;2022-07-06T12:59:41;22.40;99.90
18581;DHT22;9420;50.876;7.012;2022-07-06T13:02:17;22.50;99.90
18581;DHT22;9420;50.876;7.012;2022-07-06T13:04:55;23.00;99.90
18581;DHT22;9420;50.876;7.012;2022-07-06T13:07:24;23.40;99.90
18581;DHT22;9420;50.876;7.012;2022-07-06T13:09:53;23.00;99.90
18581;DHT22;9420;50.876;7.012;2022-07-06T13:12:22;22.60;99.90
18581;DHT22;9420;50.876;7.012;2022-07-06T13:14:51;22.60;99.90
18581;DHT22;9420;50.876;7.012;2022-07-06T13:17:18;22.60;99.90
18581;DHT22;9420;50.876;7.012;2022-07-06T13:19:46;22.40;99.90
18581;DHT22;9420;50.876;7.012;2022-07-06T13:22:13;22.40;99.90
18581;DHT22;9420;50.876;7.012;2022-07-06T13:24:40;22.60;99.90
18581;DHT22;9420;50.876;7.012;2022-07-06T13:27:09;22.90;98.70
18581;DHT22;9420;50.876;7.012;2022-07-06T13:29:36;22.80;99.90
18581;DHT22;9420;50.876;7.012;2022-07-06T13:32:05;22.90;99.10
18581;DHT22;9420;50.876;7.012;2022-07-06T13:34:33;22.60;99.90
18581;DHT22;9420;50.876;7.012;2022-07-06T13:37:01;23.20;99.20
18581;DHT22;9420;50.876;7.012;2022-07-06T13:39:28;22.60;99.70
18581;DHT22;9420;50.876;7.012;2022-07-06T13:41:56;23.10;99.90
18581;DHT22;9420;50.876;7.012;2022-07-06T13:44:24;23.70;99.90
18581;DHT22;9420;50.876;7.012;2022-07-06T13:46:51;24.30;97.40
18581;DHT22;9420;50.876;7.012;2022-07-06T13:49:18;24.30;96.20
18581;DHT22;9420;50.876;7.012;2022-07-06T13:51:46;24.70;96.80
18581;DHT22;9420;50.876;7.012;2022-07-06T13:54:13;25.40;96.00
18581;DHT22;9420;50.876;7.012;2022-07-06T13:56:40;25.30;95.90
18581;DHT22;9420;50.876;7.012;2022-07-06T13:59:08;25.20;96.70
18581;DHT22;9420;50.876;7.012;2022-07-06T14:01:37;24.60;94.80
18581;DHT22;9420;50.876;7.012;2022-07-06T14:04:04;24.30;93.70
18581;DHT22;9420;50.876;7.012;2022-07-06T14:06:32;24.70;92.80
18581;DHT22;9420;50.876;7.012;2022-07-06T14:09:00;24.40;95.30
18581;DHT22;9420;50.876;7.012;2022-07-06T14:11:27;24.10;96.60
18581;DHT22;9420;50.876;7.012;2022-07-06T14:13:55;23.70;95.60
18581;DHT22;9420;50.876;7.012;2022-07-06T14:16:22;24.70;94.10
18581;DHT22;9420;50.876;7.012;2022-07-06T14:18:51;25.20;95.90
18581;DHT22;9420;50.876;7.012;2022-07-06T14:21:18;26.40;93.60
18581;DHT22;9420;50.876;7.012;2022-07-06T14:23:45;25.90;89.50
18581;DHT22;9420;50.876;7.012;2022-07-06T14:26:14;26.60;89.50
18581;DHT22;9420;50.876;7.012;2022-07-06T14:28:41;27.60;89.30
18581;DHT22;9420;50.876;7.012;2022-07-06T14:31:08;28.60;86.30
18581;DHT22;9420;50.876;7.012;2022-07-06T14:33:35;27.90;84.60
18581;DHT22;9420;50.876;7.012;2022-07-06T14:36:03;28.30;83.40
18581;DHT22;9420;50.876;7.012;2022-07-06T14:38:31;27.20;80.40
18581;DHT22;9420;50.876;7.012;2022-07-06T14:40:59;26.30;83.00
18581;DHT22;9420;50.876;7.012;2022-07-06T14:43:26;25.40;87.30
18581;DHT22;9420;50.876;7.012;2022-07-06T14:45:53;25.10;88.80
18581;DHT22;9420;50.876;7.012;2022-07-06T14:48:20;26.50;86.80
18581;DHT22;9420;50.876;7.012;2022-07-06T14:50:47;26.20;84.20
18581;DHT22;9420;50.876;7.012;2022-07-06T14:53:16;26.10;84.20
18581;DHT22;9420;50.876;7.012;2022-07-06T14:55:43;26.90;84.00
18581;DHT22;9420;50.876;7.012;2022-07-06T14:58:13;26.90;82.60
18581;DHT22;9420;50.876;7.012;2022-07-06T15:00:43;27.30;80.20
18581;DHT22;9420;50.876;7.012;2022-07-06T15:03:10;27.40;82.40
18581;DHT22;9420;50.876;7.012;2022-07-06T15:05:37;28.20;79.50
18581;DHT22;9420;50.876;7.012;2022-07-06T15:08:05;28.60;78.20
18581;DHT22;9420;50.876;7.012;2022-07-06T15:10:34;27.90;74.10
18581;DHT22;9420;50.876;7.012;2022-07-06T15:13:00;27.70;75.80
18581;DHT22;9420;50.876;7.012;2022-07-06T15:15:28;28.20;79.40
18581;DHT22;9420;50.876;7.012;2022-07-06T15:17:59;27.80;74.80
18581;DHT22;9420;50.876;7.012;2022-07-06T15:20:26;28.20;77.00
18581;DHT22;9420;50.876;7.012;2022-07-06T15:22:53;28.30;73.80
18581;DHT22;9420;50.876;7.012;2022-07-06T15:25:20;27.80;73.60
18581;DHT22;9420;50.876;7.012;2022-07-06T15:27:51;27.20;77.00
18581;DHT22;9420;50.876;7.012;2022-07-06T15:30:19;28.40;72.80
18581;DHT22;9420;50.876;7.012;2022-07-06T15:32:46;27.40;73.00
18581;DHT22;9420;50.876;7.012;2022-07-06T15:35:13;27.70;73.10
18581;DHT22;9420;50.876;7.012;2022-07-06T15:37:41;27.40;74.00
18581;DHT22;9420;50.876;7.012;2022-07-06T15:40:09;27.20;72.00
18581;DHT22;9420;50.876;7.012;2022-07-06T15:42:37;25.70;74.50
18581;DHT22;9420;50.876;7.012;2022-07-06T15:45:07;25.40;76.90
18581;DHT22;9420;50.876;7.012;2022-07-06T15:47:35;25.70;77.60
18581;DHT22;9420;50.876;7.012;2022-07-06T15:50:02;26.20;77.50
18581;DHT22;9420;50.876;7.012;2022-07-06T15:52:30;27.30;76.30
18581;DHT22;9420;50.876;7.012;2022-07-06T15:54:57;26.80;73.50